createdAt,value
2022-10-17T00:02:09.278Z,15.71
2022-10-17T00:04:35.923Z,15.67
2022-10-17T00:07:02.482Z,15.66
2022-10-17T00:09:29.046Z,15.71
2022-10-17T00:11:55.663Z,15.75
2022-10-17T00:14:22.215Z,15.69
2022-10-17T00:16:48.790Z,15.67
2022-10-17T00:19:15.374Z,15.61
2022-10-17T00:21:41.951Z,15.60
2022-10-17T00:24:08.497Z,15.61
2022-10-17T00:26:35.102Z,15.50
2022-10-17T00:29:01.750Z,15.52
2022-10-17T00:31:28.520Z,15.56
2022-10-17T00:33:55.125Z,15.60
2022-10-17T00:36:26.223Z,15.59
2022-10-17T00:38:58.584Z,15.60
2022-10-17T00:41:31.598Z,15.62
2022-10-17T00:44:00.749Z,15.57
2022-10-17T00:46:32.965Z,15.54
2022-10-17T00:49:05.334Z,15.51
2022-10-17T00:51:41.600Z,15.46
2022-10-17T00:54:09.641Z,15.46
2022-10-17T00:56:36.930Z,15.45
2022-10-17T00:59:07.484Z,15.42
2022-10-17T01:01:34.673Z,15.40
2022-10-17T01:04:01.493Z,15.38
2022-10-17T01:06:28.155Z,15.39
2022-10-17T01:08:54.943Z,15.41
2022-10-17T01:11:39.897Z,15.42
2022-10-17T01:14:15.530Z,15.40
2022-10-17T01:16:49.055Z,15.34
2022-10-17T01:19:36.227Z,15.33
2022-10-17T01:22:11.106Z,15.27
2022-10-17T01:25:13.534Z,15.24
2022-10-17T01:27:49.065Z,15.22
2022-10-17T01:30:41.548Z,15.19
2022-10-17T01:33:17.700Z,15.18
2022-10-17T01:36:28.227Z,15.17
2022-10-17T01:39:01.799Z,15.21
2022-10-17T01:41:44.405Z,15.22
2022-10-17T01:44:19.792Z,15.18
2022-10-17T01:46:50.386Z,15.19
2022-10-17T01:49:22.683Z,15.14
2022-10-17T01:51:54.363Z,15.12
2022-10-17T01:54:27.009Z,15.14
2022-10-17T01:56:59.730Z,15.16
2022-10-17T01:59:34.349Z,15.11
2022-10-17T02:02:02.262Z,15.15
2022-10-17T02:04:29.279Z,15.15
2022-10-17T02:06:55.882Z,15.17
2022-10-17T02:09:25.316Z,15.21
2022-10-17T02:12:07.468Z,15.25
2022-10-17T02:15:04.738Z,15.22
2022-10-17T02:17:43.628Z,15.17
2022-10-17T02:20:16.300Z,15.14
2022-10-17T02:22:54.213Z,15.12
2022-10-17T02:25:42.778Z,15.14
2022-10-17T02:28:19.010Z,15.09
2022-10-17T02:30:54.907Z,15.10
2022-10-17T02:33:37.165Z,15.10
2022-10-17T02:36:10.954Z,15.10
2022-10-17T02:38:39.646Z,15.07
2022-10-17T02:41:12.539Z,15.13
2022-10-17T02:43:40.067Z,15.11
2022-10-17T02:46:08.169Z,15.08
2022-10-17T02:48:40.321Z,15.05
2022-10-17T02:51:38.925Z,15.09
2022-10-17T02:54:12.800Z,15.11
2022-10-17T02:56:59.417Z,15.16
2022-10-17T02:59:29.441Z,15.10
2022-10-17T03:01:56.739Z,15.10
2022-10-17T03:04:24.207Z,15.07
2022-10-17T03:06:50.799Z,15.08
2022-10-17T03:09:18.270Z,15.08
2022-10-17T03:11:44.883Z,15.06
2022-10-17T03:14:11.499Z,15.07
2022-10-17T03:16:38.195Z,15.05
2022-10-17T03:19:05.177Z,15.06
2022-10-17T03:21:33.928Z,15.07
2022-10-17T03:24:00.617Z,15.11
2022-10-17T03:26:29.541Z,15.07
2022-10-17T03:28:57.677Z,15.07
2022-10-17T03:31:27.088Z,15.06
2022-10-17T03:33:55.679Z,15.03
2022-10-17T03:36:22.368Z,14.99
2022-10-17T03:38:54.054Z,15.01
2022-10-17T03:41:21.549Z,15.04
2022-10-17T03:43:48.186Z,15.03
2022-10-17T03:46:14.828Z,15.02
2022-10-17T03:48:41.521Z,15.02
2022-10-17T03:51:09.898Z,15.04
2022-10-17T03:53:46.723Z,15.05
2022-10-17T03:56:19.467Z,15.03
2022-10-17T03:58:54.774Z,15.02
2022-10-17T04:01:22.178Z,15.00
2022-10-17T04:03:53.678Z,15.02
2022-10-17T04:06:21.442Z,15.03
2022-10-17T04:08:49.693Z,15.03
2022-10-17T04:11:26.998Z,15.03
2022-10-17T04:13:59.673Z,15.02
2022-10-17T04:16:27.496Z,15.04
2022-10-17T04:19:01.336Z,15.03
2022-10-17T04:21:32.134Z,14.98
2022-10-17T04:24:04.144Z,15.01
2022-10-17T04:26:51.327Z,15.02
2022-10-17T04:29:19.330Z,14.95
2022-10-17T04:31:49.894Z,14.93
2022-10-17T04:34:24.897Z,14.89
2022-10-17T04:36:51.987Z,14.90
2022-10-17T04:39:19.056Z,14.85
2022-10-17T04:41:46.373Z,14.81
2022-10-17T04:44:13.145Z,14.76
2022-10-17T04:46:44.465Z,14.79
2022-10-17T04:49:11.349Z,14.79
2022-10-17T04:51:40.164Z,14.80
2022-10-17T04:54:26.984Z,14.76
2022-10-17T04:57:01.532Z,14.78
2022-10-17T04:59:29.201Z,14.79
2022-10-17T05:02:08.354Z,14.80
2022-10-17T05:04:37.042Z,14.85
2022-10-17T05:07:04.663Z,14.81
2022-10-17T05:09:46.331Z,14.82
2022-10-17T05:12:12.955Z,14.84
2022-10-17T05:14:43.025Z,14.87
2022-10-17T05:17:09.731Z,14.88
2022-10-17T05:19:36.950Z,14.85
2022-10-17T05:22:04.238Z,14.88
2022-10-17T05:24:30.843Z,14.87
2022-10-17T05:26:57.938Z,14.88
2022-10-17T05:29:24.624Z,14.85
2022-10-17T05:31:57.835Z,14.92
2022-10-17T05:34:25.121Z,14.89
2022-10-17T05:36:51.874Z,14.93
2022-10-17T05:39:21.399Z,14.97
2022-10-17T05:41:51.269Z,14.97
2022-10-17T05:44:18.305Z,14.94
2022-10-17T05:46:50.142Z,15.04
2022-10-17T05:49:31.923Z,15.09
2022-10-17T05:52:00.458Z,15.08
2022-10-17T05:54:28.092Z,15.08
2022-10-17T05:56:55.958Z,15.07
2022-10-17T05:59:26.825Z,15.05
2022-10-17T06:02:01.767Z,15.01
2022-10-17T06:04:29.700Z,15.07
2022-10-17T06:06:56.473Z,15.11
2022-10-17T06:09:23.759Z,15.13
2022-10-17T06:11:53.018Z,15.20
2022-10-17T06:14:20.141Z,15.20
2022-10-17T06:16:49.999Z,15.19
2022-10-17T06:19:16.665Z,15.23
2022-10-17T06:21:43.343Z,15.34
2022-10-17T06:24:13.352Z,15.45
2022-10-17T06:26:41.643Z,15.46
2022-10-17T06:29:10.309Z,15.51
2022-10-17T06:31:43.134Z,15.62
2022-10-17T06:34:10.239Z,15.58
2022-10-17T06:36:38.438Z,15.62
2022-10-17T06:39:05.405Z,15.61
2022-10-17T06:41:46.444Z,15.72
2022-10-17T06:44:17.907Z,15.80
2022-10-17T06:47:03.364Z,15.90
2022-10-17T06:49:32.936Z,15.91
2022-10-17T06:52:14.761Z,16.03
2022-10-17T06:54:51.991Z,16.11
2022-10-17T06:57:38.875Z,16.17
2022-10-17T07:00:40.760Z,16.19
2022-10-17T07:03:07.507Z,16.23
2022-10-17T07:05:34.130Z,16.34
2022-10-17T07:08:00.747Z,16.45
2022-10-17T07:10:27.297Z,16.50
2022-10-17T07:12:53.865Z,16.61
2022-10-17T07:15:20.399Z,16.71
2022-10-17T07:17:53.201Z,16.83
2022-10-17T07:20:19.805Z,16.90
2022-10-17T07:22:46.487Z,17.01
2022-10-17T07:25:13.103Z,17.10
2022-10-17T07:27:51.796Z,17.16
2022-10-17T07:30:19.293Z,17.19
2022-10-17T07:33:01.393Z,17.10
2022-10-17T07:35:28.019Z,17.03
2022-10-17T07:37:54.937Z,17.06
2022-10-17T07:40:21.715Z,17.12
2022-10-17T07:42:48.399Z,17.11
2022-10-17T07:45:15.898Z,17.16
2022-10-17T07:47:43.429Z,17.11
2022-10-17T07:50:12.933Z,17.10
2022-10-17T07:52:39.852Z,17.17
2022-10-17T07:55:07.825Z,17.21
2022-10-17T07:57:34.393Z,17.09
2022-10-17T08:00:00.959Z,17.08
2022-10-17T08:02:28.541Z,17.08
2022-10-17T08:04:55.343Z,17.14
2022-10-17T08:07:25.523Z,17.22
2022-10-17T08:09:55.097Z,17.37
2022-10-17T08:12:22.044Z,17.26
2022-10-17T08:14:48.629Z,17.43
2022-10-17T08:17:15.207Z,17.49
2022-10-17T08:19:41.807Z,17.57
2022-10-17T08:22:08.508Z,17.52
2022-10-17T08:24:35.254Z,17.58
2022-10-17T08:27:02.467Z,17.78
2022-10-17T08:29:29.193Z,17.88
2022-10-17T08:32:00.830Z,17.87
2022-10-17T08:34:28.684Z,18.13
2022-10-17T08:36:55.282Z,18.23
2022-10-17T08:39:21.929Z,18.41
2022-10-17T08:42:03.132Z,18.35
2022-10-17T08:44:54.756Z,18.46
2022-10-17T08:47:36.028Z,18.53
2022-10-17T08:50:07.017Z,18.82
2022-10-17T08:52:57.043Z,18.84
2022-10-17T08:55:37.902Z,18.84
2022-10-17T08:58:21.077Z,18.84
2022-10-17T09:01:13.558Z,19.04
2022-10-17T09:03:52.902Z,19.14
2022-10-17T09:06:35.348Z,19.25
2022-10-17T09:09:21.221Z,19.00
2022-10-17T09:12:03.621Z,18.90
2022-10-17T09:14:37.011Z,19.04
2022-10-17T09:17:27.401Z,19.32
2022-10-17T09:20:05.072Z,19.16
2022-10-17T09:22:43.306Z,19.27
2022-10-17T09:25:15.517Z,19.13
2022-10-17T09:27:46.650Z,19.33
2022-10-17T09:30:54.156Z,19.42
2022-10-17T09:33:35.257Z,19.38
2022-10-17T09:36:18.810Z,19.65
2022-10-17T09:38:52.503Z,19.80
2022-10-17T09:41:46.101Z,19.93
2022-10-17T09:44:22.466Z,19.86
2022-10-17T09:47:10.535Z,19.98
2022-10-17T09:49:42.414Z,20.62
2022-10-17T09:52:13.839Z,20.57
2022-10-17T09:54:44.916Z,20.03
2022-10-17T09:57:13.705Z,19.55
2022-10-17T10:00:02.083Z,19.94
2022-10-17T10:02:31.435Z,20.04
2022-10-17T10:05:04.114Z,19.88
2022-10-17T10:07:37.965Z,19.80
2022-10-17T10:10:08.192Z,19.59
2022-10-17T10:12:39.361Z,19.57
2022-10-17T10:15:35.909Z,19.79
2022-10-17T10:18:02.926Z,20.60
2022-10-17T10:20:36.150Z,21.34
2022-10-17T10:23:18.238Z,21.54
2022-10-17T10:25:50.621Z,21.30
2022-10-17T10:28:17.915Z,21.11
2022-10-17T10:30:49.333Z,21.15
2022-10-17T10:33:16.229Z,21.36
2022-10-17T10:35:42.821Z,21.48
2022-10-17T10:38:17.467Z,21.36
2022-10-17T10:40:53.016Z,21.71
2022-10-17T10:43:43.548Z,21.10
2022-10-17T10:46:22.701Z,21.12
2022-10-17T10:48:53.478Z,21.31
2022-10-17T10:51:25.739Z,20.92
2022-10-17T10:54:10.669Z,20.85
2022-10-17T10:56:40.701Z,21.32
2022-10-17T10:59:18.987Z,21.37
2022-10-17T11:01:51.950Z,21.33
2022-10-17T11:04:33.436Z,21.30
2022-10-17T11:07:11.208Z,21.17
2022-10-17T11:09:44.954Z,20.85
2022-10-17T11:12:20.675Z,20.77
2022-10-17T11:14:56.924Z,20.64
2022-10-17T11:17:23.422Z,20.44
2022-10-17T11:19:51.846Z,20.35
2022-10-17T11:22:26.634Z,20.15
2022-10-17T11:25:04.486Z,20.50
2022-10-17T11:27:31.593Z,20.86
2022-10-17T11:29:58.595Z,21.16
2022-10-17T11:32:32.737Z,21.42
2022-10-17T11:35:25.047Z,21.32
2022-10-17T11:38:02.203Z,21.31
2022-10-17T11:40:33.813Z,21.47
2022-10-17T11:43:04.908Z,21.68
2022-10-17T11:45:40.664Z,21.73
2022-10-17T11:48:17.637Z,21.84
2022-10-17T11:54:03.209Z,21.23
2022-10-17T11:56:42.688Z,21.34
2022-10-17T11:59:48.476Z,21.40
2022-10-17T12:02:29.434Z,21.39
2022-10-17T12:05:09.995Z,21.54
2022-10-17T12:07:49.295Z,21.34
2022-10-17T12:10:31.816Z,21.24
2022-10-17T12:13:27.505Z,21.15
2022-10-17T12:16:17.905Z,21.01
2022-10-17T12:18:45.371Z,21.35
2022-10-17T12:21:12.331Z,21.69
2022-10-17T12:23:40.030Z,21.85
2022-10-17T12:26:09.506Z,22.09
2022-10-17T12:28:45.987Z,21.85
2022-10-17T12:31:28.527Z,21.69
2022-10-17T12:34:04.924Z,21.85
2022-10-17T12:36:31.410Z,21.98
2022-10-17T12:39:03.952Z,22.09
2022-10-17T12:41:39.739Z,22.24
2022-10-17T12:44:12.933Z,21.91
2022-10-17T12:46:49.139Z,21.80
2022-10-17T12:49:37.921Z,21.63
2022-10-17T12:52:18.749Z,21.53
2022-10-17T12:55:13.135Z,21.65
2022-10-17T12:57:49.530Z,21.70
2022-10-17T13:00:20.862Z,21.80
2022-10-17T13:02:49.146Z,21.93
2022-10-17T13:05:24.429Z,22.00
2022-10-17T13:07:52.538Z,22.00
2022-10-17T13:10:28.312Z,21.88
2022-10-17T13:13:04.841Z,21.88
2022-10-17T13:15:32.147Z,21.83
2022-10-17T13:18:00.847Z,21.88
2022-10-17T13:20:31.592Z,21.87
2022-10-17T13:22:58.845Z,21.72
2022-10-17T13:25:26.841Z,21.60
2022-10-17T13:28:05.572Z,21.67
2022-10-17T13:30:34.905Z,21.56
2022-10-17T13:33:02.583Z,21.62
2022-10-17T13:35:59.882Z,21.37
2022-10-17T13:38:28.760Z,21.34
2022-10-17T13:41:05.882Z,20.96
2022-10-17T13:43:38.745Z,20.81
2022-10-17T13:46:25.455Z,20.73
2022-10-17T13:48:53.320Z,20.58
2022-10-17T13:51:20.258Z,20.62
2022-10-17T13:53:46.858Z,20.54
2022-10-17T13:56:27.707Z,20.57
2022-10-17T13:59:14.077Z,20.63
2022-10-17T14:01:40.806Z,20.73
2022-10-17T14:04:11.636Z,20.74
2022-10-17T14:06:49.310Z,20.87
2022-10-17T14:09:23.363Z,21.12
2022-10-17T14:11:58.288Z,21.29
2022-10-17T14:14:26.154Z,21.23
2022-10-17T14:16:53.213Z,21.23
2022-10-17T14:19:25.006Z,21.23
2022-10-17T14:22:13.805Z,21.27
2022-10-17T14:24:42.215Z,21.11
2022-10-17T14:27:37.969Z,21.10
2022-10-17T14:30:08.191Z,20.89
2022-10-17T14:32:36.968Z,20.78
2022-10-17T14:35:24.383Z,20.94
2022-10-17T14:37:57.555Z,20.95
2022-10-17T14:40:26.059Z,20.93
2022-10-17T14:42:55.913Z,20.82
2022-10-17T14:45:27.829Z,20.63
2022-10-17T14:47:57.843Z,20.50
2022-10-17T14:50:27.213Z,20.41
2022-10-17T14:53:11.706Z,20.49
2022-10-17T14:55:55.760Z,20.36
2022-10-17T14:58:30.839Z,20.54
2022-10-17T15:00:58.975Z,20.60
2022-10-17T15:03:26.227Z,20.59
2022-10-17T15:05:54.757Z,20.46
2022-10-17T15:08:23.866Z,20.40
2022-10-17T15:10:51.400Z,20.39
2022-10-17T15:13:39.904Z,20.25
2022-10-17T15:16:22.680Z,20.09
2022-10-17T15:18:50.308Z,19.99
2022-10-17T15:21:26.427Z,19.88
2022-10-17T15:24:04.812Z,19.80
2022-10-17T15:26:33.589Z,19.76
2022-10-17T15:29:00.743Z,19.70
2022-10-17T15:31:29.278Z,19.63
2022-10-17T15:33:55.871Z,19.58
2022-10-17T15:36:30.669Z,19.53
2022-10-17T15:38:59.816Z,19.48
2022-10-17T15:41:28.581Z,19.41
2022-10-17T15:43:55.216Z,19.35
2022-10-17T15:46:33.900Z,19.29
2022-10-17T15:49:11.659Z,19.23
2022-10-17T15:51:38.397Z,19.15
2022-10-17T15:54:06.244Z,19.11
2022-10-17T15:56:43.146Z,19.09
2022-10-17T15:59:16.523Z,19.03
2022-10-17T16:01:43.217Z,18.98
2022-10-17T16:04:13.221Z,18.95
2022-10-17T16:06:39.802Z,18.87
2022-10-17T16:09:06.374Z,18.80
2022-10-17T16:11:41.226Z,18.78
2022-10-17T16:14:15.966Z,18.70
2022-10-17T16:16:43.109Z,18.60
2022-10-17T16:19:09.970Z,18.53
2022-10-17T16:21:39.790Z,18.47
2022-10-17T16:24:09.559Z,18.41
2022-10-17T16:26:36.166Z,18.34
2022-10-17T16:29:04.638Z,18.30
2022-10-17T16:31:34.523Z,18.19
2022-10-17T16:34:02.301Z,18.10
2022-10-17T16:36:28.919Z,18.03
2022-10-17T16:38:58.042Z,17.96
2022-10-17T16:41:28.638Z,17.88
2022-10-17T16:43:57.496Z,17.76
2022-10-17T16:46:26.564Z,17.69
2022-10-17T16:48:53.642Z,17.61
2022-10-17T16:51:20.990Z,17.60
2022-10-17T16:53:50.592Z,17.57
2022-10-17T16:56:19.415Z,17.52
2022-10-17T16:58:46.761Z,17.45
2022-10-17T17:01:17.027Z,17.40
2022-10-17T17:03:45.332Z,17.34
2022-10-17T17:06:14.853Z,17.27
2022-10-17T17:08:42.520Z,17.27
2022-10-17T17:11:14.186Z,17.23
2022-10-17T17:13:41.401Z,17.15
2022-10-17T17:16:21.563Z,17.11
2022-10-17T17:18:51.367Z,17.06
2022-10-17T17:21:17.953Z,17.03
2022-10-17T17:23:44.585Z,16.99
2022-10-17T17:26:20.127Z,16.92
2022-10-17T17:28:47.884Z,16.84
2022-10-17T17:31:22.902Z,16.79
2022-10-17T17:33:50.533Z,16.70
2022-10-17T17:36:22.684Z,16.65
2022-10-17T17:38:50.697Z,16.62
2022-10-17T17:41:18.931Z,16.56
2022-10-17T17:43:47.011Z,16.54
2022-10-17T17:46:16.534Z,16.56
2022-10-17T17:48:46.055Z,16.58
2022-10-17T17:51:14.789Z,16.63
2022-10-17T17:53:41.825Z,16.64
2022-10-17T17:56:11.574Z,16.67
2022-10-17T17:58:38.285Z,16.65
2022-10-17T18:01:18.615Z,16.66
2022-10-17T18:03:46.329Z,16.62
2022-10-17T18:06:13.708Z,16.62
2022-10-17T18:08:40.322Z,16.63
2022-10-17T18:11:06.901Z,16.62
2022-10-17T18:13:33.454Z,16.61
2022-10-17T18:16:01.440Z,16.59
2022-10-17T18:18:29.710Z,16.66
2022-10-17T18:20:56.707Z,16.74
2022-10-17T18:23:23.492Z,16.86
2022-10-17T18:25:57.334Z,17.05
2022-10-17T18:28:25.079Z,17.05
2022-10-17T18:30:51.972Z,17.04
2022-10-17T18:33:19.023Z,17.03
2022-10-17T18:35:46.312Z,17.00
2022-10-17T18:38:13.460Z,16.96
2022-10-17T18:40:40.413Z,17.04
2022-10-17T18:43:08.053Z,17.06
2022-10-17T18:45:35.187Z,17.05
2022-10-17T18:48:02.128Z,17.03
2022-10-17T18:50:28.842Z,16.95
2022-10-17T18:52:55.930Z,16.85
2022-10-17T18:55:22.972Z,16.79
2022-10-17T18:57:50.266Z,16.69
2022-10-17T19:00:17.982Z,16.64
2022-10-17T19:02:45.314Z,16.60
2022-10-17T19:05:12.219Z,16.57
2022-10-17T19:07:38.913Z,16.52
2022-10-17T19:10:06.196Z,16.43
2022-10-17T19:12:33.009Z,16.39
2022-10-17T19:14:59.874Z,16.31
2022-10-17T19:17:27.112Z,16.24
2022-10-17T19:19:55.363Z,16.10
2022-10-17T19:22:22.577Z,16.03
2022-10-17T19:24:49.514Z,15.98
2022-10-17T19:27:16.241Z,15.96
2022-10-17T19:29:44.095Z,15.92
2022-10-17T19:32:15.698Z,15.92
2022-10-17T19:34:45.002Z,15.91
2022-10-17T19:37:11.842Z,15.90
2022-10-17T19:39:38.749Z,15.92
2022-10-17T19:42:06.981Z,15.88
2022-10-17T19:44:36.081Z,15.85
2022-10-17T19:47:03.074Z,15.80
2022-10-17T19:49:29.883Z,15.76
2022-10-17T19:51:56.686Z,15.68
2022-10-17T19:54:23.856Z,15.62
2022-10-17T19:56:50.465Z,15.67
2022-10-17T19:59:17.944Z,15.68
2022-10-17T20:01:46.043Z,15.68
2022-10-17T20:04:13.361Z,15.71
2022-10-17T20:06:41.563Z,15.72
2022-10-17T20:09:13.861Z,15.73
2022-10-17T20:11:43.829Z,15.75
2022-10-17T20:14:10.619Z,15.73
2022-10-17T20:16:37.527Z,15.69
2022-10-17T20:19:07.640Z,15.68
2022-10-17T20:21:36.429Z,15.63
2022-10-17T20:24:05.828Z,15.64
2022-10-17T20:26:38.210Z,15.61
2022-10-17T20:29:11.363Z,15.67
2022-10-17T20:31:40.104Z,15.67
2022-10-17T20:34:07.527Z,15.61
2022-10-17T20:36:37.273Z,15.62
2022-10-17T20:39:05.945Z,15.58
2022-10-17T20:41:33.163Z,15.58
2022-10-17T20:43:59.926Z,15.55
2022-10-17T20:46:48.673Z,15.52
2022-10-17T20:49:16.282Z,15.51
2022-10-17T20:51:43.188Z,15.49
2022-10-17T20:54:09.962Z,15.48
2022-10-17T20:56:37.225Z,15.44
2022-10-17T20:59:07.220Z,15.43
2022-10-17T21:01:35.479Z,15.38
2022-10-17T21:04:21.379Z,15.38
2022-10-17T21:06:51.332Z,15.34
2022-10-17T21:09:18.355Z,15.32
2022-10-17T21:11:44.898Z,15.26
2022-10-17T21:14:12.578Z,15.22
2022-10-17T21:16:40.228Z,15.20
2022-10-17T21:19:06.947Z,15.14
2022-10-17T21:21:39.765Z,15.11
2022-10-17T21:24:09.068Z,15.10
2022-10-17T21:26:37.372Z,15.07
2022-10-17T21:29:05.925Z,15.11
2022-10-17T21:31:35.686Z,15.15
2022-10-17T21:34:20.831Z,15.15
2022-10-17T21:36:48.299Z,15.09
2022-10-17T21:39:15.628Z,15.14
2022-10-17T21:41:43.217Z,15.16
2022-10-17T21:44:16.629Z,15.18
2022-10-17T21:46:43.986Z,15.19
2022-10-17T21:49:12.901Z,15.22
2022-10-17T21:51:40.278Z,15.22
2022-10-17T21:54:07.410Z,15.23
2022-10-17T21:56:35.327Z,15.23
2022-10-17T21:59:02.763Z,15.24
2022-10-17T22:01:35.641Z,15.27
2022-10-17T22:04:04.891Z,15.27
2022-10-17T22:06:39.643Z,15.27
2022-10-17T22:09:18.438Z,15.27
2022-10-17T22:11:48.458Z,15.28
2022-10-17T22:14:18.007Z,15.31
2022-10-17T22:16:46.307Z,15.35
2022-10-17T22:19:15.763Z,15.37
2022-10-17T22:21:42.349Z,15.37
2022-10-17T22:24:12.366Z,15.37
2022-10-17T22:26:39.657Z,15.27
2022-10-17T22:29:07.916Z,15.26
2022-10-17T22:31:35.391Z,15.26
2022-10-17T22:34:02.429Z,15.26
2022-10-17T22:36:30.141Z,15.27
2022-10-17T22:38:56.830Z,15.31
2022-10-17T22:41:23.583Z,15.36
2022-10-17T22:43:50.174Z,15.39
2022-10-17T22:46:17.188Z,15.37
2022-10-17T22:48:44.550Z,15.37
2022-10-17T22:51:11.397Z,15.34
2022-10-17T22:53:38.166Z,15.28
2022-10-17T22:56:09.313Z,15.27
2022-10-17T22:58:36.661Z,15.23
2022-10-17T23:01:05.403Z,15.24
2022-10-17T23:03:32.846Z,15.24
2022-10-17T23:06:00.090Z,15.22
2022-10-17T23:08:27.674Z,15.24
2022-10-17T23:10:54.504Z,15.26
2022-10-17T23:13:21.968Z,15.27
2022-10-17T23:15:53.363Z,15.30
2022-10-17T23:18:21.167Z,15.31
2022-10-17T23:20:47.849Z,15.33
2022-10-17T23:23:14.969Z,15.34
2022-10-17T23:25:41.755Z,15.33
2022-10-17T23:28:08.813Z,15.33
2022-10-17T23:30:36.717Z,15.32
2022-10-17T23:33:04.402Z,15.29
2022-10-17T23:35:32.023Z,15.29
2022-10-17T23:37:58.910Z,15.28
2022-10-17T23:40:25.543Z,15.28
2022-10-17T23:42:52.119Z,15.27
2022-10-17T23:45:18.792Z,15.29
2022-10-17T23:47:45.462Z,15.31
2022-10-17T23:50:12.685Z,15.29
2022-10-17T23:52:39.625Z,15.30
2022-10-17T23:55:06.939Z,15.32
2022-10-17T23:57:33.890Z,15.37
